Terminal Aerodrome Forecast
Issued by NWS

Home | Current Version | Previous Version | Text Only | Print | Product List | Glossary On
Versions: 1 2 3 4 5 6 7 8 9 10 11 12 13
150
FTPA31 PHFO 221100
TAFKOA
TAF
PHKO 221136Z 2212/2312 10004KT P6SM VCSH FEW025 SCT050
     FM221900 24010KT P6SM FEW040 SCT060
     FM230000 24010KT P6SM VCSH SCT040 BKN060
     FM230500 10004KT P6SM SCT040 BKN060=

USA.gov is the U.S. government's official web portal to all federal, state and local government web resources and services.